Climatologie pour Saint-Brevin les Pins
Jour • Résumé pour décembre 9, 2017 Système :  Anglais    Métrique   Mixte
« - 1 jour
+ 1 jour »
Jour Semaine Mois Année Personnalisé
  Maximum : Minimum : Moyenne :
Température sous abri : 46.9 °F 34.5 °F 40.8 °F
Point de rosée : 46.0 °F 32.0 °F 38.3 °F
Humidité : 97% 84% 91%
Vitesse du vent : 12.0mph 0.0mph 3mph
Rafale : 18.0mph - -
Direction - - SSW
Pression : 30.30 in 29.65 in -
Précipitations : 0.13 in    
Historical Graphs
 
 
Tableau de données pour décembre 9, 2017
Heure Tempé Pt rosée Pression Vent Vitesse Rafale Humidité Taux pluie (/hr) Soleil
00:00 37.0 °F 33.8 °F 30.30 in NNW 4.0 mph 8.0 mph 88% 0.00 in 0 W/m2
00:10 37.2 °F 33.8 °F 30.30 in WNW 4.0 mph 10.0 mph 87% 0.00 in 0 W/m2
00:15 37.4 °F 33.8 °F 30.30 in NNW 3.0 mph 8.0 mph 87% 0.00 in 0 W/m2
00:20 37.2 °F 33.8 °F 30.30 in WNW 2.0 mph 8.0 mph 87% 0.00 in 0 W/m2
00:25 37.0 °F 33.6 °F 30.30 in WNW 2.0 mph 6.0 mph 87% 0.00 in 0 W/m2
00:30 37.0 °F 33.4 °F 30.30 in NNW 3.0 mph 6.0 mph 87% 0.00 in 0 W/m2
00:35 36.9 °F 33.6 °F 30.30 in NNW 2.0 mph 5.0 mph 88% 0.00 in 0 W/m2
00:45 36.1 °F 32.9 °F 30.30 in NW 4.0 mph 4.0 mph 88% 0.00 in 0 W/m2
00:50 36.0 °F 32.7 °F 30.30 in Calm   6.0 mph 88% 0.00 in 0 W/m2
00:55 36.0 °F 32.9 °F 30.29 in Calm   6.0 mph 89% 0.00 in 0 W/m2
01:00 35.6 °F 32.7 °F 30.29 in Calm   5.0 mph 89% 0.00 in 0 W/m2
01:05 35.2 °F 32.5 °F 30.29 in Calm   4.0 mph 90% 0.00 in 0 W/m2
01:15 34.7 °F 32.0 °F 30.29 in Calm   3.0 mph 90% 0.00 in 0 W/m2
01:20 34.9 °F 32.2 °F 30.29 in Calm   4.0 mph 90% 0.00 in 0 W/m2
01:25 34.5 °F 32.2 °F 30.29 in Calm   4.0 mph 91% 0.00 in 0 W/m2
01:30 34.5 °F 32.2 °F 30.28 in WNW 2.0 mph 3.0 mph 91% 0.00 in 0 W/m2
01:35 34.5 °F 32.2 °F 30.28 in NW 3.0 mph 6.0 mph 91% 0.00 in 0 W/m2
01:40 34.5 °F 32.2 °F 30.28 in Calm   6.0 mph 91% 0.00 in 0 W/m2
01:45 34.9 °F 32.7 °F 30.28 in Calm   7.0 mph 92% 0.00 in 0 W/m2
01:50 34.7 °F 32.5 °F 30.28 in NNW 3.0 mph 7.0 mph 92% 0.00 in 0 W/m2
01:55 34.9 °F 32.7 °F 30.28 in NNW 2.0 mph 7.0 mph 92% 0.00 in 0 W/m2
02:00 35.1 °F 33.1 °F 30.28 in North 3.0 mph 7.0 mph 92% 0.00 in 0 W/m2
02:05 35.4 °F 33.3 °F 30.28 in NW 1.0 mph 7.0 mph 92% 0.00 in 0 W/m2
02:10 35.6 °F 33.4 °F 30.28 in NW 1.0 mph 8.0 mph 92% 0.00 in 0 W/m2
02:15 36.1 °F 34.0 °F 30.28 in NW 1.0 mph 8.0 mph 92% 0.00 in 0 W/m2
02:20 36.5 °F 34.3 °F 30.27 in WNW 3.0 mph 7.0 mph 92% 0.00 in 0 W/m2
02:25 36.9 °F 34.7 °F 30.27 in WNW 2.0 mph 7.0 mph 92% 0.00 in 0 W/m2
02:30 37.2 °F 34.9 °F 30.27 in NW 4.0 mph 7.0 mph 91% 0.00 in 0 W/m2
02:40 37.8 °F 35.1 °F 30.27 in NW 6.0 mph 10.0 mph 90% 0.00 in 0 W/m2
02:45 38.5 °F 35.8 °F 30.27 in NW 4.0 mph 7.0 mph 90% 0.00 in 0 W/m2
02:50 39.0 °F 36.1 °F 30.27 in WNW 5.0 mph 9.0 mph 89% 0.00 in 0 W/m2
03:00 40.3 °F 36.5 °F 30.27 in WNW 7.0 mph 10.0 mph 86% 0.00 in 0 W/m2
03:05 40.5 °F 36.3 °F 30.27 in NW 3.0 mph 10.0 mph 85% 0.00 in 0 W/m2
03:10 40.5 °F 36.3 °F 30.27 in NW 5.0 mph 10.0 mph 85% 0.00 in 0 W/m2
03:15 40.6 °F 36.1 °F 30.27 in West 6.0 mph 10.0 mph 84% 0.00 in 0 W/m2
03:20 40.3 °F 35.8 °F 30.27 in NW 8.0 mph 9.0 mph 84% 0.00 in 0 W/m2
03:25 39.9 °F 35.6 °F 30.27 in WNW 3.0 mph 12.0 mph 84% 0.00 in 0 W/m2
03:30 39.7 °F 35.6 °F 30.27 in WNW 3.0 mph 12.0 mph 85% 0.00 in 0 W/m2
03:35 40.3 °F 35.8 °F 30.26 in WNW 5.0 mph 9.0 mph 84% 0.00 in 0 W/m2
03:40 40.5 °F 36.0 °F 30.26 in NW 1.0 mph 9.0 mph 84% 0.00 in 0 W/m2
03:45 40.3 °F 35.8 °F 30.26 in NW 1.0 mph 8.0 mph 84% 0.00 in 0 W/m2
03:50 39.9 °F 35.6 °F 30.26 in NNW 9.0 mph 9.0 mph 84% 0.00 in 0 W/m2
04:00 39.7 °F 35.6 °F 30.26 in WNW 3.0 mph 9.0 mph 85% 0.00 in 0 W/m2
04:05 39.9 °F 35.8 °F 30.26 in NW 2.0 mph 9.0 mph 85% 0.00 in 0 W/m2
04:20 39.4 °F 35.8 °F 30.26 in WNW 2.0 mph 10.0 mph 87% 0.00 in 0 W/m2
04:25 39.4 °F 35.4 °F 30.26 in WNW 5.0 mph 6.0 mph 86% 0.00 in 0 W/m2
04:30 39.4 °F 35.4 °F 30.26 in WNW 3.0 mph 7.0 mph 86% 0.00 in 0 W/m2
04:35 39.4 °F 35.8 °F 30.26 in NW 3.0 mph 7.0 mph 87% 0.00 in 0 W/m2
04:45 39.7 °F 36.3 °F 30.25 in WNW 3.0 mph 8.0 mph 87% 0.00 in 0 W/m2
04:50 39.9 °F 36.1 °F 30.25 in WNW 2.0 mph 9.0 mph 86% 0.00 in 0 W/m2
04:55 40.1 °F 36.3 °F 30.25 in WNW 7.0 mph 9.0 mph 86% 0.00 in 0 W/m2
05:00 40.1 °F 36.3 °F 30.25 in WNW 4.0 mph 9.0 mph 86% 0.00 in 0 W/m2
05:05 40.1 °F 36.3 °F 30.25 in NW 1.0 mph 9.0 mph 86% 0.00 in 0 W/m2
05:15 39.4 °F 35.8 °F 30.25 in NW 1.0 mph 7.0 mph 87% 0.00 in 0 W/m2
05:20 38.8 °F 35.2 °F 30.25 in Calm   5.0 mph 87% 0.00 in 0 W/m2
05:25 38.8 °F 35.6 °F 30.25 in NW 2.0 mph 6.0 mph 88% 0.00 in 0 W/m2
05:30 39.2 °F 36.3 °F 30.25 in NW 3.0 mph 6.0 mph 89% 0.00 in 0 W/m2
05:35 39.7 °F 36.7 °F 30.25 in NW 3.0 mph 6.0 mph 89% 0.00 in 0 W/m2
05:40 39.9 °F 36.7 °F 30.25 in WNW 2.0 mph 6.0 mph 88% 0.00 in 0 W/m2
06:00 40.5 °F 36.9 °F 30.25 in WNW 2.0 mph 5.0 mph 87% 0.00 in 0 W/m2
06:05 40.3 °F 36.7 °F 30.25 in NW 3.0 mph 6.0 mph 87% 0.00 in 0 W/m2
06:10 39.9 °F 36.5 °F 30.24 in WNW 2.0 mph 6.0 mph 87% 0.00 in 0 W/m2
06:15 39.9 °F 36.5 °F 30.24 in WNW 4.0 mph 7.0 mph 87% 0.00 in 0 W/m2
06:25 39.6 °F 36.3 °F 30.24 in WNW 3.0 mph 6.0 mph 88% 0.00 in 0 W/m2
06:30 39.6 °F 36.3 °F 30.23 in WNW 4.0 mph 6.0 mph 88% 0.00 in 0 W/m2
06:45 39.6 °F 36.3 °F 30.23 in Calm   10.0 mph 88% 0.00 in 0 W/m2
06:55 39.6 °F 36.0 °F 30.23 in NW 5.0 mph 7.0 mph 87% 0.00 in 0 W/m2
07:00 39.7 °F 36.5 °F 30.23 in NW 4.0 mph 9.0 mph 88% 0.00 in 0 W/m2
07:05 39.7 °F 36.5 °F 30.23 in NW 3.0 mph 9.0 mph 88% 0.00 in 0 W/m2
07:10 39.9 °F 36.7 °F 30.23 in NNW 4.0 mph 9.0 mph 88% 0.00 in 0 W/m2
07:15 40.1 °F 36.5 °F 30.23 in Calm   9.0 mph 87% 0.00 in 0 W/m2
07:20 39.9 °F 36.7 °F 30.23 in WNW 3.0 mph 8.0 mph 88% 0.00 in 0 W/m2
07:25 39.7 °F 36.5 °F 30.23 in WNW 2.0 mph 8.0 mph 88% 0.00 in 0 W/m2
07:35 39.6 °F 36.7 °F 30.24 in WNW 2.0 mph 7.0 mph 89% 0.00 in 0 W/m2
07:45 39.2 °F 36.3 °F 30.24 in WNW 4.0 mph 5.0 mph 89% 0.00 in 0 W/m2
07:50 38.8 °F 36.0 °F 30.24 in WNW 1.0 mph 5.0 mph 89% 0.00 in 0 W/m2
07:55 38.5 °F 35.8 °F 30.24 in NNW 6.0 mph 6.0 mph 90% 0.00 in 0 W/m2
08:05 38.7 °F 36.0 °F 30.24 in Calm   6.0 mph 90% 0.00 in 0 W/m2
08:20 37.9 °F 35.6 °F 30.24 in NW 1.0 mph 4.0 mph 91% 0.00 in 0 W/m2
08:25 37.8 °F 35.2 °F 30.23 in Calm   3.0 mph 91% 0.00 in 0 W/m2
08:40 37.0 °F 35.1 °F 30.23 in NW 2.0 mph 4.0 mph 92% 0.00 in 5 W/m2
08:45 37.0 °F 35.1 °F 30.23 in Calm   4.0 mph 92% 0.00 in 5 W/m2
08:50 37.0 °F 35.2 °F 30.23 in Calm   3.0 mph 93% 0.00 in 7 W/m2
08:55 37.0 °F 35.2 °F 30.23 in Calm   2.0 mph 93% 0.00 in 11 W/m2
09:00 37.0 °F 35.2 °F 30.23 in Calm   1.0 mph 93% 0.00 in 14 W/m2
09:10 36.9 °F 34.9 °F 30.23 in Calm   1.0 mph 93% 0.00 in 23 W/m2
09:15 37.2 °F 35.4 °F 30.23 in Calm   4.0 mph 93% 0.00 in 26 W/m2
09:20 37.9 °F 36.3 °F 30.22 in Calm   4.0 mph 94% 0.00 in 30 W/m2
09:30 37.8 °F 36.0 °F 30.23 in Calm   5.0 mph 93% 0.00 in 39 W/m2
09:40 37.6 °F 35.4 °F 30.23 in Calm   4.0 mph 92% 0.00 in 51 W/m2
09:45 37.4 °F 35.2 °F 30.23 in ESE 2.0 mph 3.0 mph 92% 0.00 in 54 W/m2
09:50 37.2 °F 35.2 °F 30.23 in ESE 1.0 mph 3.0 mph 92% 0.00 in 60 W/m2
09:55 37.2 °F 35.2 °F 30.23 in Calm   3.0 mph 92% 0.00 in 65 W/m2
10:00 37.4 °F 35.2 °F 30.23 in Calm   3.0 mph 92% 0.00 in 76 W/m2
10:05 37.6 °F 35.4 °F 30.22 in Calm   2.0 mph 92% 0.00 in 81 W/m2
10:10 37.6 °F 35.4 °F 30.22 in Calm   2.0 mph 92% 0.00 in 83 W/m2
10:20 37.8 °F 35.6 °F 30.22 in Calm   4.0 mph 92% 0.00 in 90 W/m2
10:25 37.9 °F 35.6 °F 30.22 in ESE 2.0 mph 4.0 mph 91% 0.00 in 93 W/m2
10:30 37.9 °F 35.4 °F 30.22 in SE 2.0 mph 4.0 mph 91% 0.00 in 98 W/m2
10:35 37.9 °F 35.4 °F 30.21 in SE 4.0 mph 4.0 mph 91% 0.00 in 105 W/m2
10:40 37.9 °F 35.4 °F 30.21 in Calm   4.0 mph 91% 0.00 in 111 W/m2
10:45 37.9 °F 35.6 °F 30.22 in SE 1.0 mph 4.0 mph 91% 0.00 in 116 W/m2
10:50 38.1 °F 35.8 °F 30.22 in SE 3.0 mph 3.0 mph 91% 0.00 in 109 W/m2
11:05 38.8 °F 36.1 °F 30.22 in Calm   5.0 mph 90% 0.00 in 127 W/m2
11:10 39.4 °F 36.7 °F 30.22 in ESE 1.0 mph 5.0 mph 90% 0.00 in 139 W/m2
11:15 39.6 °F 36.5 °F 30.22 in SSE 3.0 mph 5.0 mph 89% 0.00 in 130 W/m2
11:30 39.9 °F 37.0 °F 30.21 in Calm   3.0 mph 89% 0.00 in 174 W/m2
11:35 40.5 °F 37.6 °F 30.21 in SE 3.0 mph 5.0 mph 89% 0.00 in 218 W/m2
11:40 40.8 °F 37.6 °F 30.21 in SE 4.0 mph 5.0 mph 88% 0.00 in 183 W/m2
11:45 40.8 °F 37.4 °F 30.21 in Calm   5.0 mph 87% 0.00 in 163 W/m2
11:50 41.2 °F 37.6 °F 30.20 in ESE 4.0 mph 4.0 mph 87% 0.00 in 148 W/m2
11:55 41.4 °F 37.8 °F 30.20 in SE 2.0 mph 4.0 mph 87% 0.00 in 141 W/m2
12:00 41.4 °F 37.8 °F 30.20 in SE 3.0 mph 5.0 mph 87% 0.00 in 130 W/m2
12:05 41.5 °F 38.3 °F 30.19 in Calm   5.0 mph 88% 0.00 in 141 W/m2
12:10 41.5 °F 38.3 °F 30.19 in SE 4.0 mph 6.0 mph 88% 0.00 in 130 W/m2
12:20 41.5 °F 38.7 °F 30.18 in Calm   7.0 mph 89% 0.00 in 132 W/m2
12:25 41.5 °F 38.3 °F 30.18 in SSE 4.0 mph 6.0 mph 88% 0.00 in 137 W/m2
12:40 41.7 °F 38.1 °F 30.17 in ESE 2.0 mph 7.0 mph 87% 0.00 in 121 W/m2
12:45 41.7 °F 38.1 °F 30.17 in SE 3.0 mph 6.0 mph 87% 0.00 in 137 W/m2
12:55 41.7 °F 38.1 °F 30.16 in South 4.0 mph 6.0 mph 87% 0.00 in 109 W/m2
13:00 41.7 °F 38.3 °F 30.16 in South 2.0 mph 6.0 mph 87% 0.00 in 111 W/m2
13:05 41.9 °F 38.3 °F 30.16 in SSE 4.0 mph 6.0 mph 87% 0.00 in 104 W/m2
13:10 42.3 °F 38.7 °F 30.15 in SSE 2.0 mph 6.0 mph 87% 0.00 in 134 W/m2
13:15 42.6 °F 39.0 °F 30.15 in SSE 3.0 mph 7.0 mph 87% 0.00 in 179 W/m2
13:20 43.0 °F 39.0 °F 30.15 in South 5.0 mph 7.0 mph 86% 0.00 in 151 W/m2
13:25 43.0 °F 38.8 °F 30.15 in SSE 4.0 mph 7.0 mph 85% 0.00 in 121 W/m2
13:30 43.2 °F 39.0 °F 30.15 in SE 1.0 mph 6.0 mph 85% 0.00 in 113 W/m2
13:40 43.7 °F 39.6 °F 30.14 in SE 2.0 mph 5.0 mph 85% 0.00 in 137 W/m2
13:45 43.9 °F 39.7 °F 30.13 in SSE 2.0 mph 8.0 mph 85% 0.00 in 120 W/m2
13:50 43.9 °F 39.2 °F 30.13 in SSE 4.0 mph 8.0 mph 84% 0.00 in 76 W/m2
14:00 43.7 °F 39.6 °F 30.12 in SSE 5.0 mph 7.0 mph 85% 0.01 in 53 W/m2
14:05 43.5 °F 39.9 °F 30.12 in South 1.0 mph 7.0 mph 87% 0.01 in 72 W/m2
14:20 43.5 °F 40.8 °F 30.11 in SE 3.0 mph 4.0 mph 90% 0.01 in 93 W/m2
14:25 43.5 °F 40.8 °F 30.10 in SE 4.0 mph 5.0 mph 90% 0.01 in 93 W/m2
14:30 43.5 °F 40.8 °F 30.10 in Calm   5.0 mph 90% 0.01 in 88 W/m2
14:35 43.5 °F 40.8 °F 30.10 in SE 3.0 mph 4.0 mph 90% 0.01 in 81 W/m2
14:45 43.7 °F 41.0 °F 30.09 in Calm   5.0 mph 90% 0.01 in 69 W/m2
14:50 43.7 °F 41.0 °F 30.09 in SSE 2.0 mph 5.0 mph 90% 0.01 in 65 W/m2
14:55 43.7 °F 41.0 °F 30.08 in South 2.0 mph 5.0 mph 90% 0.02 in 60 W/m2
15:00 43.9 °F 41.0 °F 30.08 in Calm   5.0 mph 90% 0.01 in 44 W/m2
15:10 43.9 °F 41.0 °F 30.07 in SSE 2.0 mph 6.0 mph 90% 0.01 in 40 W/m2
15:15 43.9 °F 41.0 °F 30.06 in SSE 4.0 mph 6.0 mph 90% 0.01 in 47 W/m2
15:20 43.9 °F 41.0 °F 30.06 in SSE 2.0 mph 8.0 mph 90% 0.01 in 54 W/m2
15:25 43.9 °F 41.2 °F 30.05 in SSE 2.0 mph 8.0 mph 90% 0.01 in 54 W/m2
15:30 44.1 °F 41.2 °F 30.05 in SSE 2.0 mph 6.0 mph 90% 0.01 in 40 W/m2
15:40 44.1 °F 41.2 °F 30.05 in SSE 2.0 mph 4.0 mph 90% 0.01 in 39 W/m2
15:45 44.1 °F 41.2 °F 30.04 in SSE 2.0 mph 5.0 mph 90% 0.01 in 37 W/m2
15:55 44.2 °F 41.5 °F 30.04 in SSE 1.0 mph 4.0 mph 90% 0.00 in 23 W/m2
16:10 44.2 °F 41.5 °F 30.03 in SSE 2.0 mph 5.0 mph 90% 0.00 in 21 W/m2
16:15 44.2 °F 41.5 °F 30.03 in SSE 2.0 mph 5.0 mph 90% 0.00 in 19 W/m2
16:20 44.2 °F 41.7 °F 30.02 in South 2.0 mph 6.0 mph 91% 0.00 in 21 W/m2
16:30 44.2 °F 41.9 °F 30.02 in SSW 5.0 mph 8.0 mph 91% 0.01 in 21 W/m2
16:35 44.2 °F 41.5 °F 30.02 in SSW 5.0 mph 8.0 mph 90% 0.01 in 16 W/m2
16:40 44.2 °F 41.5 °F 30.01 in SSW 5.0 mph 7.0 mph 90% 0.01 in 14 W/m2
16:45 44.2 °F 41.7 °F 30.01 in South 3.0 mph 7.0 mph 91% 0.01 in 12 W/m2
16:50 44.1 °F 41.7 °F 30.00 in South 3.0 mph 7.0 mph 91% 0.01 in 9 W/m2
16:55 44.1 °F 41.5 °F 30.00 in South 4.0 mph 7.0 mph 91% 0.01 in 5 W/m2
17:00 43.9 °F 41.4 °F 30.00 in South 3.0 mph 7.0 mph 91% 0.01 in 0 W/m2
17:05 43.9 °F 41.4 °F 30.00 in SSE 1.0 mph 5.0 mph 91% 0.01 in 0 W/m2
17:10 43.9 °F 41.4 °F 30.00 in SE 4.0 mph 5.0 mph 91% 0.01 in 0 W/m2
17:20 43.7 °F 41.5 °F 29.99 in SE 3.0 mph 5.0 mph 92% 0.01 in 0 W/m2
17:25 43.5 °F 41.4 °F 29.99 in SE 3.0 mph 4.0 mph 92% 0.02 in 0 W/m2
17:30 43.3 °F 41.2 °F 29.98 in SE 1.0 mph 4.0 mph 92% 0.01 in 0 W/m2
17:45 43.2 °F 41.2 °F 29.97 in Calm   5.0 mph 93% 0.01 in 0 W/m2
17:50 43.0 °F 41.2 °F 29.96 in SSE 2.0 mph 5.0 mph 93% 0.01 in 0 W/m2
17:55 43.0 °F 41.0 °F 29.96 in SSE 1.0 mph 5.0 mph 93% 0.01 in 0 W/m2
18:20 42.8 °F 41.2 °F 29.94 in SSE 2.0 mph 8.0 mph 94% 0.01 in 0 W/m2
18:30 42.6 °F 41.2 °F 29.94 in SSE 3.0 mph 5.0 mph 94% 0.00 in 0 W/m2
18:35 42.6 °F 41.2 °F 29.93 in SSE 3.0 mph 5.0 mph 94% 0.00 in 0 W/m2
18:45 42.6 °F 40.6 °F 29.94 in SSE 3.0 mph 7.0 mph 93% 0.01 in 0 W/m2
18:50 42.6 °F 40.6 °F 29.93 in SSE 5.0 mph 6.0 mph 93% 0.01 in 0 W/m2
18:55 42.6 °F 41.2 °F 29.93 in SSE 5.0 mph 6.0 mph 94% 0.01 in 0 W/m2
19:00 42.6 °F 40.8 °F 29.92 in SSE 3.0 mph 8.0 mph 93% 0.01 in 0 W/m2
19:10 42.8 °F 41.2 °F 29.92 in SSE 2.0 mph 7.0 mph 94% 0.01 in 0 W/m2
19:15 42.6 °F 41.2 °F 29.92 in SSE 2.0 mph 7.0 mph 94% 0.02 in 0 W/m2
19:20 42.8 °F 41.2 °F 29.91 in SSE 5.0 mph 8.0 mph 94% 0.02 in 0 W/m2
19:25 42.6 °F 41.2 °F 29.91 in SSE 3.0 mph 8.0 mph 94% 0.02 in 0 W/m2
19:30 42.6 °F 41.2 °F 29.91 in South 3.0 mph 8.0 mph 94% 0.02 in 0 W/m2
19:35 42.6 °F 41.2 °F 29.90 in SSE 4.0 mph 7.0 mph 94% 0.02 in 0 W/m2
19:40 42.6 °F 41.4 °F 29.90 in SSE 2.0 mph 7.0 mph 95% 0.02 in 0 W/m2
19:45 42.6 °F 41.4 °F 29.89 in SE 5.0 mph 8.0 mph 95% 0.02 in 0 W/m2
19:50 42.6 °F 41.2 °F 29.89 in SSE 3.0 mph 8.0 mph 95% 0.02 in 0 W/m2
20:05 42.6 °F 41.2 °F 29.88 in SE 6.0 mph 9.0 mph 95% 0.03 in 0 W/m2
20:10 42.6 °F 41.2 °F 29.87 in South 5.0 mph 9.0 mph 95% 0.03 in 0 W/m2
20:15 42.6 °F 41.2 °F 29.87 in ESE 3.0 mph 11.0 mph 95% 0.02 in 0 W/m2
20:25 42.6 °F 41.5 °F 29.85 in SSE 3.0 mph 9.0 mph 96% 0.02 in 0 W/m2
20:30 42.6 °F 41.5 °F 29.85 in SSE 5.0 mph 9.0 mph 96% 0.02 in 0 W/m2
20:40 42.6 °F 41.7 °F 29.84 in SSE 6.0 mph 10.0 mph 96% 0.02 in 0 W/m2
20:45 42.8 °F 41.7 °F 29.84 in SSE 4.0 mph 10.0 mph 96% 0.02 in 0 W/m2
21:00 43.0 °F 41.9 °F 29.83 in SE 8.0 mph 12.0 mph 96% 0.02 in 0 W/m2
21:05 43.2 °F 42.1 °F 29.82 in SSE 3.0 mph 11.0 mph 96% 0.02 in 0 W/m2
21:10 43.2 °F 42.1 °F 29.82 in SSE 5.0 mph 11.0 mph 96% 0.02 in 0 W/m2
21:20 43.3 °F 42.3 °F 29.82 in SE 6.0 mph 12.0 mph 96% 0.02 in 0 W/m2
21:25 43.5 °F 42.4 °F 29.81 in SSE 8.0 mph 13.0 mph 96% 0.02 in 0 W/m2
21:35 43.3 °F 42.3 °F 29.80 in South 4.0 mph 12.0 mph 96% 0.01 in 0 W/m2
21:45 43.5 °F 42.6 °F 29.78 in SE 6.0 mph 14.0 mph 97% 0.01 in 0 W/m2
21:50 43.5 °F 42.6 °F 29.78 in SSE 7.0 mph 14.0 mph 97% 0.01 in 0 W/m2
22:05 44.1 °F 43.2 °F 29.76 in South 4.0 mph 14.0 mph 97% 0.00 in 0 W/m2
22:10 44.1 °F 43.3 °F 29.76 in South 6.0 mph 14.0 mph 97% 0.00 in 0 W/m2
22:20 44.2 °F 43.5 °F 29.75 in SSE 3.0 mph 14.0 mph 97% 0.01 in 0 W/m2
22:25 44.4 °F 43.5 °F 29.74 in South 4.0 mph 14.0 mph 97% 0.01 in 0 W/m2
22:30 44.6 °F 43.9 °F 29.73 in South 5.0 mph 15.0 mph 97% 0.01 in 0 W/m2
22:35 44.8 °F 44.1 °F 29.73 in SSE 6.0 mph 15.0 mph 97% 0.01 in 0 W/m2
22:40 45.0 °F 44.1 °F 29.73 in SE 10.0 mph 14.0 mph 97% 0.01 in 0 W/m2
22:45 45.1 °F 44.2 °F 29.73 in South 12.0 mph 15.0 mph 97% 0.01 in 0 W/m2
22:50 45.3 °F 44.4 °F 29.72 in SSW 6.0 mph 15.0 mph 97% 0.01 in 0 W/m2
22:55 45.3 °F 44.6 °F 29.72 in South 8.0 mph 15.0 mph 97% 0.02 in 0 W/m2
23:00 45.7 °F 44.8 °F 29.71 in South 7.0 mph 12.0 mph 97% 0.02 in 0 W/m2
23:05 45.9 °F 45.0 °F 29.71 in SSE 6.0 mph 11.0 mph 97% 0.02 in 0 W/m2
23:10 46.0 °F 45.3 °F 29.70 in South 9.0 mph 18.0 mph 97% 0.02 in 0 W/m2
23:15 46.2 °F 45.5 °F 29.69 in South 4.0 mph 18.0 mph 97% 0.03 in 0 W/m2
23:20 46.2 °F 45.5 °F 29.69 in South 6.0 mph 13.0 mph 97% 0.03 in 0 W/m2
23:25 46.2 °F 45.5 °F 29.68 in SSE 3.0 mph 13.0 mph 97% 0.03 in 0 W/m2
23:30 46.2 °F 45.5 °F 29.68 in SSE 7.0 mph 13.0 mph 97% 0.04 in 0 W/m2
23:35 46.6 °F 45.7 °F 29.67 in SSE 10.0 mph 13.0 mph 97% 0.04 in 0 W/m2
23:40 46.6 °F 45.9 °F 29.66 in SSE 11.0 mph 12.0 mph 97% 0.04 in 0 W/m2
23:45 46.9 °F 46.0 °F 29.65 in South 10.0 mph 18.0 mph 97% 0.04 in 0 W/m2